createdAt,value
2022-09-09T00:02:01.845Z,12.25
2022-09-09T00:04:31.615Z,14.98
2022-09-09T00:07:17.358Z,12.27
2022-09-09T00:09:50.386Z,13.77
2022-09-09T00:12:35.319Z,13.07
2022-09-09T00:15:31.531Z,13.65
2022-09-09T00:18:30.274Z,12.18
2022-09-09T00:21:08.581Z,13.00
2022-09-09T00:23:40.934Z,11.55
2022-09-09T00:26:31.232Z,13.20
2022-09-09T00:29:29.131Z,14.63
2022-09-09T00:32:01.021Z,11.23
2022-09-09T00:34:29.616Z,13.20
2022-09-09T00:36:57.980Z,16.58
2022-09-09T00:39:43.476Z,12.65
2022-09-09T00:42:32.664Z,17.55
2022-09-09T00:47:47.063Z,13.50
2022-09-09T00:50:27.038Z,18.60
2022-09-09T00:53:12.767Z,17.05
2022-09-09T00:56:11.034Z,15.88
2022-09-09T00:58:38.319Z,15.03
2022-09-09T01:01:14.118Z,16.80
2022-09-09T01:03:52.088Z,17.42
2022-09-09T01:06:39.505Z,14.75
2022-09-09T01:09:27.039Z,18.88
2022-09-09T01:12:26.284Z,14.98
2022-09-09T01:14:58.008Z,16.35
2022-09-09T01:17:46.292Z,18.73
2022-09-09T01:20:40.722Z,19.90
2022-09-09T01:23:31.027Z,15.70
2022-09-09T01:26:27.088Z,14.48
2022-09-09T01:28:54.616Z,17.25
2022-09-09T01:31:38.453Z,16.10
2022-09-09T01:34:13.696Z,19.67
2022-09-09T01:36:56.344Z,16.73
2022-09-09T01:39:23.628Z,15.77
2022-09-09T01:41:50.951Z,17.63
2022-09-09T01:44:19.224Z,15.40
2022-09-09T01:46:46.538Z,14.55
2022-09-09T01:49:13.982Z,18.83
2022-09-09T01:51:42.909Z,16.00
2022-09-09T01:54:10.367Z,18.10
2022-09-09T01:56:48.747Z,14.98
2022-09-09T01:59:25.136Z,13.97
2022-09-09T02:02:18.499Z,13.93
2022-09-09T02:04:51.396Z,16.50
2022-09-09T02:07:41.113Z,15.18
2022-09-09T02:10:21.152Z,15.23
2022-09-09T02:12:56.085Z,16.50
2022-09-09T02:15:51.578Z,17.00
2022-09-09T02:18:24.371Z,17.17
2022-09-09T02:20:52.444Z,15.70
2022-09-09T02:23:20.363Z,27.17
2022-09-09T02:25:48.132Z,16.60
2022-09-09T02:28:16.586Z,16.30
2022-09-09T02:30:47.211Z,16.53
2022-09-09T02:33:15.947Z,16.02
2022-09-09T02:35:44.342Z,16.42
2022-09-09T02:38:13.825Z,15.63
2022-09-09T02:40:41.104Z,15.27
2022-09-09T02:43:08.310Z,16.98
2022-09-09T02:45:45.506Z,16.83
2022-09-09T02:48:37.592Z,22.30
2022-09-09T02:51:05.964Z,15.05
2022-09-09T02:53:50.843Z,17.27
2022-09-09T02:56:21.079Z,18.85
2022-09-09T02:58:48.335Z,16.02
2022-09-09T03:01:15.660Z,17.98
2022-09-09T03:03:43.147Z,15.15
2022-09-09T03:06:11.028Z,19.25
2022-09-09T03:08:38.403Z,20.73
2022-09-09T03:11:06.096Z,16.58
2022-09-09T03:13:33.740Z,21.20
2022-09-09T03:16:01.219Z,21.77
2022-09-09T03:18:29.146Z,18.38
2022-09-09T03:20:56.395Z,14.73
2022-09-09T03:23:23.905Z,19.00
2022-09-09T03:25:52.242Z,18.63
2022-09-09T03:28:19.622Z,13.90
2022-09-09T03:30:46.825Z,15.32
2022-09-09T03:33:14.037Z,16.70
2022-09-09T03:35:46.712Z,20.25
2022-09-09T03:38:13.901Z,16.25
2022-09-09T03:40:41.045Z,21.85
2022-09-09T03:43:08.206Z,16.42
2022-09-09T03:45:35.458Z,20.77
2022-09-09T03:48:02.844Z,13.48
2022-09-09T03:50:30.065Z,18.60
2022-09-09T03:52:57.268Z,14.65
2022-09-09T03:55:24.508Z,14.40
2022-09-09T03:57:51.697Z,15.10
2022-09-09T04:00:18.959Z,14.05
2022-09-09T04:02:46.729Z,15.82
2022-09-09T04:05:15.024Z,16.42
2022-09-09T04:07:42.179Z,16.95
2022-09-09T04:10:09.718Z,18.23
2022-09-09T04:12:36.851Z,15.90
2022-09-09T04:15:04.199Z,14.32
2022-09-09T04:17:31.866Z,15.43
2022-09-09T04:19:59.054Z,15.60
2022-09-09T04:22:26.301Z,14.75
2022-09-09T04:24:53.500Z,16.23
2022-09-09T04:27:20.788Z,15.90
2022-09-09T04:29:47.959Z,15.07
2022-09-09T04:32:15.107Z,16.25
2022-09-09T04:34:42.410Z,19.42
2022-09-09T04:37:09.721Z,20.75
2022-09-09T04:39:37.763Z,21.75
2022-09-09T04:42:05.068Z,19.13
2022-09-09T04:44:32.269Z,19.45
2022-09-09T04:46:59.448Z,14.32
2022-09-09T04:49:26.988Z,18.60
2022-09-09T04:51:54.180Z,15.85
2022-09-09T04:54:21.388Z,13.38
2022-09-09T04:56:48.547Z,13.75
2022-09-09T04:59:15.818Z,17.08
2022-09-09T05:01:43.548Z,14.68
2022-09-09T05:04:11.243Z,14.23
2022-09-09T05:06:38.682Z,16.30
2022-09-09T05:09:05.937Z,15.88
2022-09-09T05:11:36.999Z,16.92
2022-09-09T05:14:04.997Z,13.63
2022-09-09T05:16:32.585Z,17.40
2022-09-09T05:19:00.142Z,14.63
2022-09-09T05:21:27.593Z,16.98
2022-09-09T05:23:54.753Z,15.90
2022-09-09T05:26:23.012Z,17.92
2022-09-09T05:28:50.531Z,18.08
2022-09-09T05:31:19.377Z,19.40
2022-09-09T05:33:47.785Z,15.45
2022-09-09T05:36:17.582Z,16.20
2022-09-09T05:38:45.592Z,15.82
2022-09-09T05:41:14.082Z,15.15
2022-09-09T05:43:41.219Z,18.03
2022-09-09T05:46:13.001Z,13.15
2022-09-09T05:48:42.724Z,13.30
2022-09-09T05:51:18.389Z,20.63
2022-09-09T05:53:46.356Z,14.73
2022-09-09T05:56:18.656Z,13.68
2022-09-09T05:58:47.892Z,13.05
2022-09-09T06:03:45.301Z,17.00
2022-09-09T06:06:15.098Z,12.45
2022-09-09T06:08:45.157Z,15.30
2022-09-09T06:11:13.616Z,16.77
2022-09-09T06:13:41.426Z,16.37
2022-09-09T06:16:12.984Z,11.95
2022-09-09T06:18:41.385Z,16.98
2022-09-09T06:21:21.972Z,12.67
2022-09-09T06:23:49.739Z,13.40
2022-09-09T06:26:22.095Z,14.45
2022-09-09T06:28:50.805Z,12.40
2022-09-09T06:31:25.841Z,10.50
2022-09-09T06:33:56.142Z,12.30
2022-09-09T06:36:26.880Z,10.85
2022-09-09T06:38:54.236Z,9.55
2022-09-09T06:41:23.631Z,11.55
2022-09-09T06:43:51.095Z,7.50
2022-09-09T06:46:20.230Z,11.18
2022-09-09T06:51:20.840Z,12.57
2022-09-09T06:53:48.668Z,7.65
2022-09-09T06:56:29.095Z,9.93
2022-09-09T06:58:59.509Z,8.00
2022-09-09T07:01:30.826Z,6.60
2022-09-09T07:04:00.139Z,6.65
2022-09-09T07:06:30.337Z,5.93
2022-09-09T07:09:11.479Z,4.97
2022-09-09T07:11:50.373Z,7.82
2022-09-09T07:14:17.898Z,4.53
2022-09-09T07:16:46.516Z,7.40
2022-09-09T07:19:15.503Z,4.95
2022-09-09T07:21:43.127Z,8.40
2022-09-09T07:24:11.688Z,6.63
2022-09-09T07:26:41.000Z,8.30
2022-09-09T07:29:09.129Z,6.40
2022-09-09T07:31:38.806Z,6.22
2022-09-09T07:34:06.743Z,5.78
2022-09-09T07:36:37.123Z,14.18
2022-09-09T07:39:14.074Z,7.78
2022-09-09T07:41:43.980Z,4.05
2022-09-09T07:44:17.472Z,3.60
2022-09-09T07:46:46.290Z,4.15
2022-09-09T07:49:13.688Z,5.60
2022-09-09T07:51:43.124Z,2.92
2022-09-09T07:54:12.718Z,4.43
2022-09-09T07:56:40.909Z,7.38
2022-09-09T07:59:10.242Z,5.80
2022-09-09T08:01:40.507Z,5.45
2022-09-09T08:04:16.187Z,5.47
2022-09-09T08:06:47.242Z,7.13
2022-09-09T08:09:15.299Z,5.70
2022-09-09T08:11:43.728Z,6.38
2022-09-09T08:14:11.955Z,4.07
2022-09-09T08:16:42.184Z,4.55
2022-09-09T08:19:09.879Z,8.98
2022-09-09T08:21:39.903Z,10.15
2022-09-09T08:24:08.132Z,4.28
2022-09-09T08:26:44.012Z,8.35
2022-09-09T08:29:12.688Z,5.88
2022-09-09T08:31:45.070Z,4.53
2022-09-09T08:34:13.279Z,10.43
2022-09-09T08:36:45.810Z,5.00
2022-09-09T08:39:15.437Z,6.95
2022-09-09T08:41:54.937Z,6.65
2022-09-09T08:44:30.250Z,13.68
2022-09-09T08:47:33.935Z,9.85
2022-09-09T08:50:22.597Z,7.63
2022-09-09T08:52:52.066Z,4.65
2022-09-09T08:55:29.003Z,7.13
2022-09-09T08:57:58.645Z,4.22
2022-09-09T09:00:33.565Z,4.70
2022-09-09T09:03:24.254Z,4.68
2022-09-09T09:06:24.585Z,13.68
2022-09-09T09:09:05.193Z,9.52
2022-09-09T09:11:49.619Z,9.15
2022-09-09T09:14:30.158Z,8.98
2022-09-09T09:17:02.225Z,8.48
2022-09-09T09:19:31.166Z,6.05
2022-09-09T09:22:16.659Z,5.80
2022-09-09T09:24:47.260Z,5.65
2022-09-09T09:27:27.320Z,8.07
2022-09-09T09:30:21.438Z,4.30
2022-09-09T09:32:57.471Z,3.03
2022-09-09T09:35:26.015Z,8.77
2022-09-09T09:40:51.125Z,8.63
2022-09-09T09:43:24.848Z,6.13
2022-09-09T09:46:13.977Z,6.18
2022-09-09T09:48:39.396Z,6.47
2022-09-09T09:51:14.771Z,4.18
2022-09-09T09:53:42.222Z,2.83
2022-09-09T09:56:11.993Z,3.95
2022-09-09T09:59:00.081Z,5.32
2022-09-09T10:01:34.297Z,4.80
2022-09-09T10:04:24.171Z,12.73
2022-09-09T10:06:51.995Z,4.53
2022-09-09T10:09:26.515Z,4.20
2022-09-09T10:12:29.460Z,5.15
2022-09-09T10:15:23.561Z,7.28
2022-09-09T10:18:06.593Z,5.65
2022-09-09T10:21:04.056Z,5.30
2022-09-09T10:24:07.143Z,3.70
2022-09-09T10:27:05.315Z,8.40
2022-09-09T10:29:39.219Z,4.15
2022-09-09T10:32:11.556Z,8.70
2022-09-09T10:34:57.286Z,5.80
2022-09-09T10:37:44.023Z,2.95
2022-09-09T10:40:54.226Z,3.00
2022-09-09T10:43:49.374Z,6.32
2022-09-09T10:46:39.594Z,5.53
2022-09-09T10:49:28.544Z,6.20
2022-09-09T10:54:55.082Z,5.45
2022-09-09T10:57:37.485Z,5.85
2022-09-09T11:00:17.243Z,9.52
2022-09-09T11:02:44.749Z,3.15
2022-09-09T11:05:29.482Z,3.72
2022-09-09T11:08:20.519Z,3.42
2022-09-09T11:11:05.065Z,2.95
2022-09-09T11:13:55.312Z,5.30
2022-09-09T11:16:49.609Z,6.78
2022-09-09T11:19:20.081Z,5.55
2022-09-09T11:21:48.860Z,5.28
2022-09-09T11:24:22.584Z,8.00
2022-09-09T11:27:01.050Z,8.13
2022-09-09T11:29:48.722Z,10.00
2022-09-09T11:32:40.770Z,7.55
2022-09-09T11:35:27.297Z,4.10
2022-09-09T11:38:25.301Z,5.95
2022-09-09T11:41:11.182Z,4.33
2022-09-09T11:43:43.311Z,4.30
2022-09-09T11:46:12.384Z,9.52
2022-09-09T11:48:46.560Z,7.30
2022-09-09T11:51:21.505Z,3.95
2022-09-09T11:53:55.609Z,3.58
2022-09-09T11:56:46.280Z,3.92
2022-09-09T11:59:33.613Z,4.65
2022-09-09T12:02:18.790Z,4.40
2022-09-09T12:05:09.834Z,8.45
2022-09-09T12:07:59.333Z,6.95
2022-09-09T12:10:36.144Z,5.28
2022-09-09T12:13:32.760Z,3.17
2022-09-09T12:16:03.307Z,3.92
2022-09-09T12:18:36.143Z,4.82
2022-09-09T12:21:21.099Z,4.15
2022-09-09T12:23:58.141Z,5.75
2022-09-09T12:26:38.205Z,8.07
2022-09-09T12:29:26.153Z,7.45
2022-09-09T12:32:11.375Z,3.25
2022-09-09T12:34:45.295Z,6.00
2022-09-09T12:37:28.999Z,5.35
2022-09-09T12:39:56.651Z,6.45
2022-09-09T12:42:24.958Z,10.25
2022-09-09T12:44:57.032Z,4.03
2022-09-09T12:47:41.828Z,4.10
2022-09-09T12:50:26.734Z,5.88
2022-09-09T12:52:57.992Z,7.80
2022-09-09T12:55:31.183Z,7.18
2022-09-09T12:58:00.381Z,9.25
2022-09-09T13:00:28.081Z,11.20
2022-09-09T13:03:00.272Z,7.40
2022-09-09T13:05:37.214Z,9.25
2022-09-09T13:08:11.834Z,2.88
2022-09-09T13:10:58.677Z,4.90
2022-09-09T13:13:37.711Z,6.82
2022-09-09T13:16:08.169Z,6.63
2022-09-09T13:18:36.944Z,11.07
2022-09-09T13:21:04.245Z,3.63
2022-09-09T13:23:33.620Z,4.72
2022-09-09T13:26:04.022Z,4.38
2022-09-09T13:28:33.620Z,2.92
2022-09-09T13:31:04.324Z,3.45
2022-09-09T13:33:39.109Z,4.55
2022-09-09T13:36:09.346Z,8.48
2022-09-09T13:38:56.280Z,4.65
2022-09-09T13:41:25.560Z,3.67
2022-09-09T13:43:53.938Z,8.95
2022-09-09T13:46:41.511Z,2.83
2022-09-09T13:49:09.786Z,3.50
2022-09-09T13:51:43.227Z,6.32
2022-09-09T13:54:12.239Z,3.25
2022-09-09T13:59:15.759Z,2.95
2022-09-09T14:01:43.126Z,4.18
2022-09-09T14:04:11.510Z,5.35
2022-09-09T14:06:40.209Z,4.57
2022-09-09T14:09:08.740Z,4.60
2022-09-09T14:11:36.175Z,7.65
2022-09-09T14:14:03.411Z,6.20
2022-09-09T14:16:31.140Z,5.80
2022-09-09T14:18:58.360Z,7.35
2022-09-09T14:21:26.111Z,8.68
2022-09-09T14:23:53.803Z,3.58
2022-09-09T14:26:22.185Z,5.43
2022-09-09T14:28:55.357Z,3.55
2022-09-09T14:31:23.980Z,4.50
2022-09-09T14:33:51.943Z,4.13
2022-09-09T14:36:19.322Z,6.38
2022-09-09T14:38:46.816Z,5.32
2022-09-09T14:41:19.398Z,4.72
2022-09-09T14:43:46.800Z,6.10
2022-09-09T14:46:16.279Z,4.30
2022-09-09T14:48:44.848Z,4.65
2022-09-09T14:51:13.776Z,3.10
2022-09-09T14:53:41.738Z,5.53
2022-09-09T14:56:14.993Z,6.30
2022-09-09T14:58:42.266Z,4.82
2022-09-09T15:01:11.854Z,7.40
2022-09-09T15:03:40.373Z,5.63
2022-09-09T15:06:09.576Z,1.90
2022-09-09T15:08:42.273Z,4.97
2022-09-09T15:11:11.662Z,6.25
2022-09-09T15:13:40.841Z,4.18
2022-09-09T15:16:10.224Z,5.78
2022-09-09T15:18:43.745Z,3.97
2022-09-09T15:21:20.050Z,6.50
2022-09-09T15:23:48.481Z,5.90
2022-09-09T15:26:16.235Z,5.85
2022-09-09T15:28:44.784Z,4.05
2022-09-09T15:31:13.401Z,6.88
2022-09-09T15:33:40.680Z,4.70
2022-09-09T15:36:31.243Z,4.95
2022-09-09T15:38:59.007Z,3.42
2022-09-09T15:41:26.565Z,3.25
2022-09-09T15:43:57.628Z,8.55
2022-09-09T15:46:28.814Z,5.72
2022-09-09T15:48:58.740Z,6.53
2022-09-09T15:51:43.933Z,7.38
2022-09-09T15:54:14.304Z,4.78
2022-09-09T15:56:42.012Z,4.90
2022-09-09T15:59:09.267Z,4.22
2022-09-09T16:01:36.814Z,5.05
2022-09-09T16:04:04.863Z,8.70
2022-09-09T16:06:32.711Z,7.97
2022-09-09T16:09:01.923Z,5.10
2022-09-09T16:11:34.264Z,4.22
2022-09-09T16:14:01.732Z,3.58
2022-09-09T16:16:30.803Z,6.57
2022-09-09T16:21:31.734Z,5.47
2022-09-09T16:24:00.656Z,9.48
2022-09-09T16:26:28.620Z,7.13
2022-09-09T16:28:55.920Z,5.72
2022-09-09T16:31:25.400Z,5.95
2022-09-09T16:33:52.997Z,8.45
2022-09-09T16:36:22.257Z,9.88
2022-09-09T16:38:52.664Z,6.53
2022-09-09T16:41:20.988Z,8.82
2022-09-09T16:43:48.518Z,6.23
2022-09-09T16:46:18.094Z,7.28
2022-09-09T16:48:46.979Z,5.50
2022-09-09T16:51:17.303Z,4.97
2022-09-09T16:53:44.833Z,4.15
2022-09-09T16:56:17.972Z,6.63
2022-09-09T16:58:46.172Z,9.05
2022-09-09T17:01:15.029Z,6.90
2022-09-09T17:03:42.780Z,6.55
2022-09-09T17:06:14.822Z,6.93
2022-09-09T17:08:42.608Z,8.13
2022-09-09T17:11:17.133Z,3.50
2022-09-09T17:13:45.230Z,5.90
2022-09-09T17:16:14.109Z,3.43
2022-09-09T17:18:41.527Z,5.97
2022-09-09T17:21:13.328Z,4.20
2022-09-09T17:23:40.807Z,8.05
2022-09-09T17:26:10.695Z,6.38
2022-09-09T17:28:39.454Z,7.40
2022-09-09T17:31:08.183Z,10.75
2022-09-09T17:33:37.598Z,12.43
2022-09-09T17:36:12.565Z,7.28
2022-09-09T17:38:40.180Z,8.63
2022-09-09T17:41:14.254Z,8.43
2022-09-09T17:43:43.201Z,11.07
2022-09-09T17:46:25.934Z,9.23
2022-09-09T17:48:58.619Z,8.38
2022-09-09T17:51:30.699Z,11.60
2022-09-09T17:54:00.952Z,10.52
2022-09-09T17:56:31.624Z,9.55
2022-09-09T17:59:00.260Z,9.98
2022-09-09T18:01:31.271Z,11.00
2022-09-09T18:04:01.678Z,6.43
2022-09-09T18:06:32.260Z,4.82
2022-09-09T18:09:02.390Z,5.95
2022-09-09T18:11:34.374Z,2.65
2022-09-09T18:14:03.380Z,5.07
2022-09-09T18:16:34.873Z,5.13
2022-09-09T18:19:04.093Z,8.75
2022-09-09T18:26:29.442Z,4.15
2022-09-09T18:28:59.396Z,7.17
2022-09-09T18:31:28.683Z,9.50
2022-09-09T18:33:57.571Z,8.20
2022-09-09T18:36:27.432Z,6.50
2022-09-09T18:38:56.669Z,6.53
2022-09-09T18:41:26.856Z,6.05
2022-09-09T18:43:58.142Z,5.72
2022-09-09T18:46:27.235Z,7.38
2022-09-09T18:51:26.461Z,4.40
2022-09-09T18:54:05.497Z,7.07
2022-09-09T18:56:32.906Z,6.18
2022-09-09T18:59:02.019Z,3.83
2022-09-09T19:03:57.340Z,7.25
2022-09-09T19:06:27.368Z,5.07
2022-09-09T19:09:03.832Z,5.20
2022-09-09T19:11:33.559Z,4.40
2022-09-09T19:14:02.926Z,4.57
2022-09-09T19:16:32.188Z,7.07
2022-09-09T19:19:01.050Z,4.65
2022-09-09T19:21:31.078Z,7.30
2022-09-09T19:24:12.483Z,11.07
2022-09-09T19:26:43.949Z,6.80
2022-09-09T19:29:20.077Z,4.82
2022-09-09T19:32:06.560Z,7.97
2022-09-09T19:34:35.296Z,5.53
2022-09-09T19:37:02.511Z,7.22
2022-09-09T19:39:30.319Z,5.22
2022-09-09T19:41:57.511Z,5.05
2022-09-09T19:44:24.785Z,7.00
2022-09-09T19:46:52.634Z,6.85
2022-09-09T19:49:21.397Z,10.23
2022-09-09T19:51:48.568Z,8.93
2022-09-09T19:54:15.850Z,6.25
2022-09-09T19:56:44.094Z,6.03
2022-09-09T19:59:12.902Z,6.38
2022-09-09T20:01:49.497Z,8.65
2022-09-09T20:04:19.211Z,5.90
2022-09-09T20:06:47.520Z,4.65
2022-09-09T20:09:16.904Z,11.30
2022-09-09T20:11:45.751Z,4.60
2022-09-09T20:14:13.910Z,9.70
2022-09-09T20:16:41.594Z,3.75
2022-09-09T20:19:12.149Z,6.82
2022-09-09T20:21:47.275Z,7.40
2022-09-09T20:24:16.870Z,6.25
2022-09-09T20:29:16.189Z,5.50
2022-09-09T20:31:44.302Z,2.42
2022-09-09T20:34:13.997Z,3.53
2022-09-09T20:36:41.918Z,6.60
2022-09-09T20:39:17.387Z,5.28
2022-09-09T20:41:46.290Z,3.17
2022-09-09T20:44:16.438Z,4.28
2022-09-09T20:46:47.946Z,3.45
2022-09-09T20:49:16.895Z,2.55
2022-09-09T20:51:45.445Z,4.82
2022-09-09T20:54:15.945Z,10.43
2022-09-09T20:56:44.473Z,5.78
2022-09-09T20:59:17.578Z,4.05
2022-09-09T21:01:47.091Z,2.75
2022-09-09T21:04:15.812Z,8.57
2022-09-09T21:06:43.019Z,5.53
2022-09-09T21:09:10.268Z,6.55
2022-09-09T21:11:37.460Z,6.50
2022-09-09T21:14:05.040Z,3.47
2022-09-09T21:16:32.354Z,3.40
2022-09-09T21:18:59.720Z,4.70
2022-09-09T21:21:27.498Z,2.80
2022-09-09T21:23:57.265Z,7.35
2022-09-09T21:26:25.408Z,5.97
2022-09-09T21:28:53.676Z,7.97
2022-09-09T21:31:25.708Z,8.23
2022-09-09T21:33:54.871Z,5.18
2022-09-09T21:36:22.049Z,5.35
2022-09-09T21:38:49.314Z,8.95
2022-09-09T21:41:16.981Z,5.32
2022-09-09T21:43:45.621Z,4.82
2022-09-09T21:46:17.615Z,6.68
2022-09-09T21:48:44.934Z,4.70
2022-09-09T21:51:14.937Z,6.75
2022-09-09T21:53:43.207Z,7.32
2022-09-09T21:56:12.968Z,7.15
2022-09-09T21:58:41.750Z,5.47
2022-09-09T22:01:14.650Z,5.60
2022-09-09T22:03:42.790Z,5.55
2022-09-09T22:06:12.530Z,4.53
2022-09-09T22:08:39.799Z,5.55
2022-09-09T22:11:09.342Z,7.45
2022-09-09T22:13:38.262Z,6.00
2022-09-09T22:16:07.349Z,6.88
2022-09-09T22:18:34.827Z,5.78
2022-09-09T22:21:07.124Z,9.23
2022-09-09T22:23:34.513Z,8.90
2022-09-09T22:26:01.660Z,8.40
2022-09-09T22:28:29.915Z,3.22
2022-09-09T22:30:57.402Z,9.00
2022-09-09T22:33:24.924Z,5.72
2022-09-09T22:35:52.076Z,8.55
2022-09-09T22:38:19.291Z,3.42
2022-09-09T22:40:47.848Z,6.90
2022-09-09T22:43:21.132Z,9.85
2022-09-09T22:45:48.548Z,5.65
2022-09-09T22:48:15.857Z,3.70
2022-09-09T22:50:43.966Z,5.90
2022-09-09T22:53:14.183Z,6.30
2022-09-09T22:55:41.525Z,9.10
2022-09-09T22:58:09.428Z,3.53
2022-09-09T23:00:41.808Z,2.97
2022-09-09T23:03:09.018Z,3.60
2022-09-09T23:05:38.549Z,10.15
2022-09-09T23:08:05.905Z,8.43
2022-09-09T23:10:33.389Z,2.80
2022-09-09T23:13:00.592Z,6.28
2022-09-09T23:15:31.125Z,4.50
2022-09-09T23:17:58.605Z,8.20
2022-09-09T23:20:26.838Z,4.20
2022-09-09T23:22:54.363Z,7.40
2022-09-09T23:25:21.617Z,6.00
2022-09-09T23:27:48.865Z,7.43
2022-09-09T23:30:16.145Z,6.10
2022-09-09T23:32:46.931Z,5.72
2022-09-09T23:35:14.153Z,4.25
2022-09-09T23:37:41.435Z,7.22
2022-09-09T23:40:09.030Z,9.25
2022-09-09T23:42:36.216Z,5.93
2022-09-09T23:45:03.651Z,3.53
2022-09-09T23:47:30.835Z,5.40
2022-09-09T23:49:58.151Z,3.50
2022-09-09T23:52:26.603Z,3.25
2022-09-09T23:54:53.792Z,5.23
2022-09-09T23:57:21.699Z,3.65
2022-09-09T23:59:48.889Z,4.75
